Карточка аэропорта UAAA

Внимание!
Информация на этой странице в стадии наполнения.
Если вы не увидели какой-то информации, или заметили неточность - пожалуйста сообщите нам!
Спасибо!
Команда RU-STAFF
Название аэропортаАлматы
Название аэропорта (англ.)Almaty
Превышение2238 ft. (682.1 m.)
Координаты43°21.072', 77°1.5960000000001'
Высота перехода10000ft
Эшелон переходаFL120, QNH<733:FL130
Коды ответчика3501-3517, 3401-3427
Зона ОрВДАлматы РПИ (UAAA)
Данные METARUAAA 291130Z 03003MPS 5000 FU NSC M02/M08 Q1024 NOSIG
Проноз погоды (TAF)UAAA 290501Z 2906/0106 35002MPS 6000 SCT050 BKN100 TX00/2909Z TNM11/0103Z TEMPO 2906/2912 05003MPS 3100 BR FU BECMG 2913/2914 22003MPS 1800 BR FU TEMPO 2916/0102 16003MPS 0700 FZFG SCT011 BECMG 0105/0106 34003MPS 3100 SCT050CB BKN100
NOTAMshow/hide NOTAM
AWOS   TABLE

Информация о ВПП

ВПП Длина ВПП (м.) Покрытие Курс ВПП Частота ILS
05L4500Бетон51109.1
23R4500Бетон231111.3
05R4400Асфальтобетон51110.3
23L4400Асфальтобетон231108.1

Диспетчерские позиции

Позывной Наименование органа УВД Частота
UAAA_APPАлматы-Подход124.8
UAAA_TWRАлматы-Вышка119.4
UAAA_GNDАлматы-Руление121.7
UAAA_R_APPАлматы-Круг126.8



Спутниковое изображение